sensor_id;sensor_type;location;lat;lon;timestamp;P1;durP1;ratioP1;P2;durP2;ratioP2
3718;SDS011;1875;52.492;6.860;2022-09-13T00:01:04;117.67;;;30.07;;
3718;SDS011;1875;52.492;6.860;2022-09-13T00:03:33;353.20;;;70.20;;
3718;SDS011;1875;52.492;6.860;2022-09-13T00:06:08;251.03;;;50.50;;
3718;SDS011;1875;52.492;6.860;2022-09-13T00:08:36;115.97;;;27.70;;
3718;SDS011;1875;52.492;6.860;2022-09-13T00:11:04;116.27;;;31.30;;
3718;SDS011;1875;52.492;6.860;2022-09-13T00:13:31;136.50;;;32.83;;
3718;SDS011;1875;52.492;6.860;2022-09-13T00:15:59;121.33;;;29.27;;
3718;SDS011;1875;52.492;6.860;2022-09-13T00:18:29;128.03;;;32.93;;
3718;SDS011;1875;52.492;6.860;2022-09-13T00:21:04;166.47;;;41.83;;
3718;SDS011;1875;52.492;6.860;2022-09-13T00:23:33;137.97;;;35.73;;
3718;SDS011;1875;52.492;6.860;2022-09-13T00:26:04;174.17;;;35.33;;
3718;SDS011;1875;52.492;6.860;2022-09-13T00:28:33;313.43;;;67.90;;
3718;SDS011;1875;52.492;6.860;2022-09-13T00:31:01;349.20;;;81.70;;
3718;SDS011;1875;52.492;6.860;2022-09-13T00:33:29;169.87;;;38.30;;
3718;SDS011;1875;52.492;6.860;2022-09-13T00:35:57;144.30;;;36.43;;
3718;SDS011;1875;52.492;6.860;2022-09-13T00:38:26;122.23;;;30.13;;
3718;SDS011;1875;52.492;6.860;2022-09-13T00:40:53;138.13;;;40.33;;
3718;SDS011;1875;52.492;6.860;2022-09-13T00:46:07;266.00;;;52.67;;
3718;SDS011;1875;52.492;6.860;2022-09-13T00:48:35;269.40;;;52.53;;
3718;SDS011;1875;52.492;6.860;2022-09-13T00:51:03;147.77;;;33.03;;
3718;SDS011;1875;52.492;6.860;2022-09-13T00:53:34;125.97;;;27.87;;
3718;SDS011;1875;52.492;6.860;2022-09-13T00:56:05;124.17;;;26.73;;
3718;SDS011;1875;52.492;6.860;2022-09-13T00:58:35;287.97;;;62.63;;
3718;SDS011;1875;52.492;6.860;2022-09-13T01:01:05;289.97;;;63.57;;
3718;SDS011;1875;52.492;6.860;2022-09-13T01:03:36;131.37;;;28.70;;
3718;SDS011;1875;52.492;6.860;2022-09-13T01:06:05;253.53;;;59.80;;
3718;SDS011;1875;52.492;6.860;2022-09-13T01:08:35;89.80;;;22.83;;
3718;SDS011;1875;52.492;6.860;2022-09-13T01:11:03;136.30;;;36.67;;
3718;SDS011;1875;52.492;6.860;2022-09-13T01:13:32;130.10;;;25.83;;
3718;SDS011;1875;52.492;6.860;2022-09-13T01:16:01;109.87;;;22.87;;
3718;SDS011;1875;52.492;6.860;2022-09-13T01:18:29;259.33;;;51.77;;
3718;SDS011;1875;52.492;6.860;2022-09-13T01:21:06;251.67;;;51.87;;
3718;SDS011;1875;52.492;6.860;2022-09-13T01:23:57;132.50;;;29.53;;
3718;SDS011;1875;52.492;6.860;2022-09-13T01:26:46;166.17;;;34.97;;
3718;SDS011;1875;52.492;6.860;2022-09-13T01:29:25;143.77;;;30.63;;
3718;SDS011;1875;52.492;6.860;2022-09-13T01:32:03;148.27;;;29.27;;
3718;SDS011;1875;52.492;6.860;2022-09-13T01:34:37;208.87;;;45.13;;
3718;SDS011;1875;52.492;6.860;2022-09-13T01:40:04;125.67;;;29.23;;
3718;SDS011;1875;52.492;6.860;2022-09-13T01:42:40;183.30;;;35.63;;
3718;SDS011;1875;52.492;6.860;2022-09-13T01:45:20;245.33;;;51.73;;
3718;SDS011;1875;52.492;6.860;2022-09-13T01:47:55;255.00;;;51.23;;
3718;SDS011;1875;52.492;6.860;2022-09-13T01:50:27;318.13;;;67.10;;
3718;SDS011;1875;52.492;6.860;2022-09-13T01:53:02;316.00;;;66.73;;
3718;SDS011;1875;52.492;6.860;2022-09-13T01:55:33;202.40;;;44.70;;
3718;SDS011;1875;52.492;6.860;2022-09-13T01:58:08;321.67;;;71.10;;
3718;SDS011;1875;52.492;6.860;2022-09-13T02:00:43;204.70;;;44.63;;
3718;SDS011;1875;52.492;6.860;2022-09-13T02:03:16;191.63;;;39.20;;
3718;SDS011;1875;52.492;6.860;2022-09-13T02:05:46;122.27;;;25.07;;
3718;SDS011;1875;52.492;6.860;2022-09-13T02:08:16;311.23;;;65.13;;
3718;SDS011;1875;52.492;6.860;2022-09-13T02:10:48;323.63;;;67.00;;
3718;SDS011;1875;52.492;6.860;2022-09-13T02:13:19;321.23;;;67.40;;
3718;SDS011;1875;52.492;6.860;2022-09-13T02:15:49;116.93;;;26.37;;
3718;SDS011;1875;52.492;6.860;2022-09-13T02:18:20;116.77;;;27.20;;
3718;SDS011;1875;52.492;6.860;2022-09-13T02:20:50;113.37;;;28.23;;
3718;SDS011;1875;52.492;6.860;2022-09-13T02:23:20;129.20;;;26.40;;
3718;SDS011;1875;52.492;6.860;2022-09-13T02:25:50;125.37;;;27.67;;
3718;SDS011;1875;52.492;6.860;2022-09-13T02:28:20;226.47;;;45.73;;
3718;SDS011;1875;52.492;6.860;2022-09-13T02:30:50;186.17;;;44.03;;
3718;SDS011;1875;52.492;6.860;2022-09-13T02:33:22;136.13;;;32.97;;
3718;SDS011;1875;52.492;6.860;2022-09-13T02:35:53;125.47;;;27.73;;
3718;SDS011;1875;52.492;6.860;2022-09-13T02:38:23;113.03;;;23.13;;
3718;SDS011;1875;52.492;6.860;2022-09-13T02:40:55;117.23;;;27.73;;
3718;SDS011;1875;52.492;6.860;2022-09-13T02:43:26;125.37;;;26.73;;
3718;SDS011;1875;52.492;6.860;2022-09-13T02:45:59;226.60;;;45.87;;
3718;SDS011;1875;52.492;6.860;2022-09-13T02:48:42;268.60;;;57.80;;
3718;SDS011;1875;52.492;6.860;2022-09-13T02:51:17;118.37;;;26.67;;
3718;SDS011;1875;52.492;6.860;2022-09-13T02:53:52;117.90;;;24.30;;
3718;SDS011;1875;52.492;6.860;2022-09-13T02:56:28;121.80;;;25.33;;
3718;SDS011;1875;52.492;6.860;2022-09-13T02:59:00;229.07;;;47.43;;
3718;SDS011;1875;52.492;6.860;2022-09-13T03:01:30;273.77;;;58.30;;
3718;SDS011;1875;52.492;6.860;2022-09-13T03:04:00;110.27;;;24.07;;
3718;SDS011;1875;52.492;6.860;2022-09-13T03:06:28;119.10;;;25.83;;
3718;SDS011;1875;52.492;6.860;2022-09-13T03:08:56;115.80;;;26.03;;
3718;SDS011;1875;52.492;6.860;2022-09-13T03:11:28;240.87;;;52.43;;
3718;SDS011;1875;52.492;6.860;2022-09-13T03:14:07;107.87;;;23.23;;
3718;SDS011;1875;52.492;6.860;2022-09-13T03:16:46;265.20;;;56.40;;
3718;SDS011;1875;52.492;6.860;2022-09-13T03:19:25;113.10;;;26.50;;
3718;SDS011;1875;52.492;6.860;2022-09-13T03:22:11;127.03;;;25.90;;
3718;SDS011;1875;52.492;6.860;2022-09-13T03:24:50;126.10;;;32.30;;
3718;SDS011;1875;52.492;6.860;2022-09-13T03:27:25;233.73;;;49.33;;
3718;SDS011;1875;52.492;6.860;2022-09-13T03:29:57;298.57;;;61.90;;
3718;SDS011;1875;52.492;6.860;2022-09-13T03:32:32;122.13;;;27.73;;
3718;SDS011;1875;52.492;6.860;2022-09-13T03:35:06;102.63;;;25.30;;
3718;SDS011;1875;52.492;6.860;2022-09-13T03:37:40;171.00;;;37.97;;
3718;SDS011;1875;52.492;6.860;2022-09-13T03:40:12;129.77;;;24.70;;
3718;SDS011;1875;52.492;6.860;2022-09-13T03:42:42;268.47;;;54.10;;
3718;SDS011;1875;52.492;6.860;2022-09-13T03:45:12;140.97;;;31.57;;
3718;SDS011;1875;52.492;6.860;2022-09-13T03:47:41;147.50;;;31.23;;
3718;SDS011;1875;52.492;6.860;2022-09-13T03:50:13;217.07;;;45.57;;
3718;SDS011;1875;52.492;6.860;2022-09-13T03:52:43;109.60;;;23.53;;
3718;SDS011;1875;52.492;6.860;2022-09-13T03:55:11;192.37;;;44.03;;
3718;SDS011;1875;52.492;6.860;2022-09-13T03:57:39;311.03;;;64.97;;
3718;SDS011;1875;52.492;6.860;2022-09-13T04:00:07;225.33;;;53.47;;
3718;SDS011;1875;52.492;6.860;2022-09-13T04:02:36;132.40;;;32.93;;
3718;SDS011;1875;52.492;6.860;2022-09-13T04:05:04;207.20;;;44.20;;
3718;SDS011;1875;52.492;6.860;2022-09-13T04:07:33;223.30;;;44.77;;
3718;SDS011;1875;52.492;6.860;2022-09-13T04:10:01;216.33;;;43.43;;
3718;SDS011;1875;52.492;6.860;2022-09-13T04:12:28;105.57;;;30.67;;
3718;SDS011;1875;52.492;6.860;2022-09-13T04:14:56;229.67;;;45.63;;
3718;SDS011;1875;52.492;6.860;2022-09-13T04:17:24;105.87;;;22.27;;
3718;SDS011;1875;52.492;6.860;2022-09-13T04:19:51;200.13;;;40.47;;
3718;SDS011;1875;52.492;6.860;2022-09-13T04:22:19;114.40;;;24.03;;
3718;SDS011;1875;52.492;6.860;2022-09-13T04:24:48;235.17;;;46.87;;
3718;SDS011;1875;52.492;6.860;2022-09-13T04:27:16;134.33;;;32.10;;
3718;SDS011;1875;52.492;6.860;2022-09-13T04:29:44;129.50;;;29.03;;
3718;SDS011;1875;52.492;6.860;2022-09-13T04:32:12;115.97;;;25.53;;
3718;SDS011;1875;52.492;6.860;2022-09-13T04:34:39;153.80;;;35.07;;
3718;SDS011;1875;52.492;6.860;2022-09-13T04:37:07;252.67;;;71.27;;
3718;SDS011;1875;52.492;6.860;2022-09-13T04:39:34;264.80;;;73.80;;
3718;SDS011;1875;52.492;6.860;2022-09-13T04:42:04;238.27;;;68.97;;
3718;SDS011;1875;52.492;6.860;2022-09-13T04:44:32;237.53;;;63.80;;
3718;SDS011;1875;52.492;6.860;2022-09-13T04:47:00;250.93;;;69.80;;
3718;SDS011;1875;52.492;6.860;2022-09-13T04:49:27;248.90;;;67.40;;
3718;SDS011;1875;52.492;6.860;2022-09-13T04:51:55;249.27;;;66.70;;
3718;SDS011;1875;52.492;6.860;2022-09-13T04:54:23;239.67;;;56.77;;
3718;SDS011;1875;52.492;6.860;2022-09-13T04:56:50;247.83;;;62.23;;
3718;SDS011;1875;52.492;6.860;2022-09-13T04:59:19;238.80;;;56.07;;
3718;SDS011;1875;52.492;6.860;2022-09-13T05:01:47;245.30;;;59.40;;
3718;SDS011;1875;52.492;6.860;2022-09-13T05:04:14;243.93;;;62.30;;
3718;SDS011;1875;52.492;6.860;2022-09-13T05:06:42;249.90;;;65.30;;
3718;SDS011;1875;52.492;6.860;2022-09-13T05:09:11;241.13;;;57.67;;
3718;SDS011;1875;52.492;6.860;2022-09-13T05:11:39;256.97;;;67.20;;
3718;SDS011;1875;52.492;6.860;2022-09-13T05:14:08;249.30;;;59.33;;
3718;SDS011;1875;52.492;6.860;2022-09-13T05:16:38;253.77;;;65.20;;
3718;SDS011;1875;52.492;6.860;2022-09-13T05:19:05;247.93;;;60.67;;
3718;SDS011;1875;52.492;6.860;2022-09-13T05:21:33;255.80;;;65.83;;
3718;SDS011;1875;52.492;6.860;2022-09-13T05:24:01;249.43;;;64.87;;
3718;SDS011;1875;52.492;6.860;2022-09-13T05:26:29;251.60;;;63.47;;
3718;SDS011;1875;52.492;6.860;2022-09-13T05:28:57;248.60;;;61.80;;
3718;SDS011;1875;52.492;6.860;2022-09-13T05:31:26;249.23;;;62.37;;
3718;SDS011;1875;52.492;6.860;2022-09-13T05:33:57;267.47;;;74.93;;
3718;SDS011;1875;52.492;6.860;2022-09-13T05:36:26;277.20;;;79.17;;
3718;SDS011;1875;52.492;6.860;2022-09-13T05:38:54;266.00;;;75.33;;
3718;SDS011;1875;52.492;6.860;2022-09-13T05:41:42;305.57;;;89.57;;
3718;SDS011;1875;52.492;6.860;2022-09-13T05:44:10;284.83;;;81.17;;
3718;SDS011;1875;52.492;6.860;2022-09-13T05:46:39;320.13;;;90.90;;
3718;SDS011;1875;52.492;6.860;2022-09-13T05:49:10;258.50;;;66.73;;
3718;SDS011;1875;52.492;6.860;2022-09-13T05:51:38;287.47;;;79.23;;
3718;SDS011;1875;52.492;6.860;2022-09-13T05:54:06;281.93;;;76.70;;
3718;SDS011;1875;52.492;6.860;2022-09-13T05:56:34;276.33;;;73.43;;
3718;SDS011;1875;52.492;6.860;2022-09-13T05:59:01;324.57;;;91.70;;
3718;SDS011;1875;52.492;6.860;2022-09-13T06:01:29;278.80;;;76.43;;
3718;SDS011;1875;52.492;6.860;2022-09-13T06:03:57;274.07;;;72.20;;
3718;SDS011;1875;52.492;6.860;2022-09-13T06:06:27;257.47;;;75.03;;
3718;SDS011;1875;52.492;6.860;2022-09-13T06:08:54;269.60;;;71.97;;
3718;SDS011;1875;52.492;6.860;2022-09-13T06:11:23;289.13;;;84.40;;
3718;SDS011;1875;52.492;6.860;2022-09-13T06:13:51;255.57;;;75.20;;
3718;SDS011;1875;52.492;6.860;2022-09-13T06:16:19;251.03;;;70.77;;
3718;SDS011;1875;52.492;6.860;2022-09-13T06:18:47;268.67;;;74.57;;
3718;SDS011;1875;52.492;6.860;2022-09-13T06:21:16;309.60;;;84.60;;
3718;SDS011;1875;52.492;6.860;2022-09-13T06:23:46;277.33;;;79.10;;
3718;SDS011;1875;52.492;6.860;2022-09-13T06:26:15;279.80;;;75.33;;
3718;SDS011;1875;52.492;6.860;2022-09-13T06:28:45;277.23;;;76.10;;
3718;SDS011;1875;52.492;6.860;2022-09-13T06:31:14;264.57;;;64.03;;
3718;SDS011;1875;52.492;6.860;2022-09-13T06:33:43;280.90;;;78.93;;
3718;SDS011;1875;52.492;6.860;2022-09-13T06:36:12;286.30;;;77.10;;
3718;SDS011;1875;52.492;6.860;2022-09-13T06:38:40;279.40;;;73.97;;
3718;SDS011;1875;52.492;6.860;2022-09-13T06:41:10;272.90;;;70.43;;
3718;SDS011;1875;52.492;6.860;2022-09-13T06:43:39;263.90;;;75.00;;
3718;SDS011;1875;52.492;6.860;2022-09-13T06:46:08;247.67;;;67.47;;
3718;SDS011;1875;52.492;6.860;2022-09-13T06:48:37;290.50;;;82.77;;
3718;SDS011;1875;52.492;6.860;2022-09-13T06:51:07;289.23;;;82.23;;
3718;SDS011;1875;52.492;6.860;2022-09-13T06:53:35;294.07;;;82.60;;
3718;SDS011;1875;52.492;6.860;2022-09-13T06:56:04;244.20;;;64.63;;
3718;SDS011;1875;52.492;6.860;2022-09-13T06:58:35;276.10;;;72.73;;
3718;SDS011;1875;52.492;6.860;2022-09-13T07:01:07;289.47;;;81.37;;
3718;SDS011;1875;52.492;6.860;2022-09-13T07:03:38;260.53;;;71.83;;
3718;SDS011;1875;52.492;6.860;2022-09-13T07:06:10;278.93;;;78.97;;
3718;SDS011;1875;52.492;6.860;2022-09-13T07:08:39;272.77;;;73.10;;
3718;SDS011;1875;52.492;6.860;2022-09-13T07:11:07;319.33;;;91.07;;
3718;SDS011;1875;52.492;6.860;2022-09-13T07:13:36;287.87;;;78.97;;
3718;SDS011;1875;52.492;6.860;2022-09-13T07:16:05;269.93;;;68.93;;
3718;SDS011;1875;52.492;6.860;2022-09-13T07:18:33;281.30;;;78.17;;
3718;SDS011;1875;52.492;6.860;2022-09-13T07:21:01;269.80;;;77.43;;
3718;SDS011;1875;52.492;6.860;2022-09-13T07:23:31;309.13;;;88.23;;
3718;SDS011;1875;52.492;6.860;2022-09-13T07:25:59;281.97;;;78.53;;
3718;SDS011;1875;52.492;6.860;2022-09-13T07:28:30;282.47;;;77.40;;
3718;SDS011;1875;52.492;6.860;2022-09-13T07:31:06;291.10;;;81.70;;
3718;SDS011;1875;52.492;6.860;2022-09-13T07:33:34;271.87;;;71.93;;
3718;SDS011;1875;52.492;6.860;2022-09-13T07:36:02;270.23;;;69.23;;
3718;SDS011;1875;52.492;6.860;2022-09-13T07:38:32;263.37;;;73.87;;
3718;SDS011;1875;52.492;6.860;2022-09-13T07:41:01;309.13;;;90.17;;
3718;SDS011;1875;52.492;6.860;2022-09-13T07:43:31;266.83;;;74.30;;
3718;SDS011;1875;52.492;6.860;2022-09-13T07:46:00;272.97;;;68.27;;
3718;SDS011;1875;52.492;6.860;2022-09-13T07:48:30;278.47;;;72.37;;
3718;SDS011;1875;52.492;6.860;2022-09-13T07:50:59;297.90;;;76.00;;
3718;SDS011;1875;52.492;6.860;2022-09-13T07:53:29;291.73;;;76.90;;
3718;SDS011;1875;52.492;6.860;2022-09-13T07:56:00;295.23;;;77.97;;
3718;SDS011;1875;52.492;6.860;2022-09-13T07:58:29;294.10;;;76.63;;
3718;SDS011;1875;52.492;6.860;2022-09-13T08:01:00;286.20;;;81.67;;
3718;SDS011;1875;52.492;6.860;2022-09-13T08:03:32;322.23;;;84.23;;
3718;SDS011;1875;52.492;6.860;2022-09-13T08:06:01;265.97;;;73.17;;
3718;SDS011;1875;52.492;6.860;2022-09-13T08:08:29;276.57;;;80.60;;
3718;SDS011;1875;52.492;6.860;2022-09-13T08:10:58;317.93;;;86.83;;
3718;SDS011;1875;52.492;6.860;2022-09-13T08:13:26;289.77;;;75.30;;
3718;SDS011;1875;52.492;6.860;2022-09-13T08:15:54;301.83;;;79.33;;
3718;SDS011;1875;52.492;6.860;2022-09-13T08:18:22;266.70;;;71.47;;
3718;SDS011;1875;52.492;6.860;2022-09-13T08:20:51;342.23;;;100.83;;
3718;SDS011;1875;52.492;6.860;2022-09-13T08:23:22;291.37;;;76.77;;
3718;SDS011;1875;52.492;6.860;2022-09-13T08:25:50;278.37;;;78.03;;
3718;SDS011;1875;52.492;6.860;2022-09-13T08:28:18;286.53;;;76.23;;
3718;SDS011;1875;52.492;6.860;2022-09-13T08:30:52;303.47;;;80.60;;
3718;SDS011;1875;52.492;6.860;2022-09-13T08:33:20;272.17;;;73.33;;
3718;SDS011;1875;52.492;6.860;2022-09-13T08:35:52;289.90;;;71.50;;
3718;SDS011;1875;52.492;6.860;2022-09-13T08:38:20;305.40;;;80.47;;
3718;SDS011;1875;52.492;6.860;2022-09-13T08:40:49;296.13;;;74.57;;
3718;SDS011;1875;52.492;6.860;2022-09-13T08:43:19;295.77;;;79.63;;
3718;SDS011;1875;52.492;6.860;2022-09-13T08:45:52;288.27;;;70.10;;
3718;SDS011;1875;52.492;6.860;2022-09-13T08:48:26;285.20;;;66.90;;
3718;SDS011;1875;52.492;6.860;2022-09-13T08:51:01;356.67;;;102.87;;
3718;SDS011;1875;52.492;6.860;2022-09-13T08:53:31;311.93;;;79.53;;
3718;SDS011;1875;52.492;6.860;2022-09-13T08:56:05;311.73;;;85.10;;
3718;SDS011;1875;52.492;6.860;2022-09-13T08:58:42;280.47;;;67.07;;
3718;SDS011;1875;52.492;6.860;2022-09-13T09:01:29;267.13;;;67.63;;
3718;SDS011;1875;52.492;6.860;2022-09-13T09:04:06;273.03;;;63.63;;
3718;SDS011;1875;52.492;6.860;2022-09-13T09:06:39;274.10;;;68.03;;
3718;SDS011;1875;52.492;6.860;2022-09-13T09:09:09;276.90;;;68.70;;
3718;SDS011;1875;52.492;6.860;2022-09-13T09:11:40;281.73;;;67.30;;
3718;SDS011;1875;52.492;6.860;2022-09-13T09:14:13;256.67;;;64.60;;
3718;SDS011;1875;52.492;6.860;2022-09-13T09:16:42;273.90;;;64.60;;
3718;SDS011;1875;52.492;6.860;2022-09-13T09:19:14;258.57;;;60.47;;
3718;SDS011;1875;52.492;6.860;2022-09-13T09:21:47;234.33;;;56.20;;
3718;SDS011;1875;52.492;6.860;2022-09-13T09:24:17;239.53;;;59.23;;
3718;SDS011;1875;52.492;6.860;2022-09-13T09:26:46;291.90;;;70.43;;
3718;SDS011;1875;52.492;6.860;2022-09-13T09:29:17;262.90;;;63.07;;
3718;SDS011;1875;52.492;6.860;2022-09-13T09:31:53;273.23;;;63.63;;
3718;SDS011;1875;52.492;6.860;2022-09-13T09:34:31;230.67;;;51.67;;
3718;SDS011;1875;52.492;6.860;2022-09-13T09:37:10;194.33;;;46.43;;
3718;SDS011;1875;52.492;6.860;2022-09-13T09:39:42;236.33;;;54.57;;
3718;SDS011;1875;52.492;6.860;2022-09-13T09:42:11;227.77;;;62.93;;
3718;SDS011;1875;52.492;6.860;2022-09-13T09:44:39;209.93;;;52.67;;
3718;SDS011;1875;52.492;6.860;2022-09-13T09:47:11;197.43;;;45.33;;
3718;SDS011;1875;52.492;6.860;2022-09-13T09:49:41;261.57;;;61.90;;
3718;SDS011;1875;52.492;6.860;2022-09-13T09:52:31;225.33;;;55.17;;
3718;SDS011;1875;52.492;6.860;2022-09-13T09:55:08;223.57;;;50.60;;
3718;SDS011;1875;52.492;6.860;2022-09-13T09:57:50;202.27;;;44.73;;
3718;SDS011;1875;52.492;6.860;2022-09-13T10:00:19;259.33;;;59.23;;
3718;SDS011;1875;52.492;6.860;2022-09-13T10:02:48;284.97;;;59.20;;
3718;SDS011;1875;52.492;6.860;2022-09-13T10:05:19;173.13;;;38.53;;
3718;SDS011;1875;52.492;6.860;2022-09-13T10:07:53;251.80;;;53.93;;
3718;SDS011;1875;52.492;6.860;2022-09-13T10:10:23;263.30;;;61.27;;
3718;SDS011;1875;52.492;6.860;2022-09-13T10:12:54;170.80;;;39.63;;
3718;SDS011;1875;52.492;6.860;2022-09-13T10:15:23;239.63;;;53.20;;
3718;SDS011;1875;52.492;6.860;2022-09-13T10:18:03;268.07;;;62.80;;
3718;SDS011;1875;52.492;6.860;2022-09-13T10:21:02;221.60;;;51.97;;
3718;SDS011;1875;52.492;6.860;2022-09-13T10:23:33;227.73;;;49.33;;
3718;SDS011;1875;52.492;6.860;2022-09-13T10:26:03;209.37;;;45.40;;
3718;SDS011;1875;52.492;6.860;2022-09-13T10:28:33;302.17;;;67.00;;
3718;SDS011;1875;52.492;6.860;2022-09-13T10:31:03;194.73;;;46.07;;
3718;SDS011;1875;52.492;6.860;2022-09-13T10:33:33;220.53;;;49.00;;
3718;SDS011;1875;52.492;6.860;2022-09-13T10:36:03;172.17;;;40.93;;
3718;SDS011;1875;52.492;6.860;2022-09-13T10:38:35;233.60;;;53.47;;
3718;SDS011;1875;52.492;6.860;2022-09-13T10:41:19;284.90;;;61.33;;
3718;SDS011;1875;52.492;6.860;2022-09-13T10:43:48;201.93;;;47.57;;
3718;SDS011;1875;52.492;6.860;2022-09-13T10:46:20;179.20;;;43.90;;
3718;SDS011;1875;52.492;6.860;2022-09-13T10:48:48;168.77;;;36.17;;
3718;SDS011;1875;52.492;6.860;2022-09-13T10:51:28;130.40;;;27.80;;
3718;SDS011;1875;52.492;6.860;2022-09-13T10:54:15;167.13;;;38.27;;
3718;SDS011;1875;52.492;6.860;2022-09-13T10:56:45;175.00;;;48.43;;
3718;SDS011;1875;52.492;6.860;2022-09-13T10:59:18;139.97;;;34.27;;
3718;SDS011;1875;52.492;6.860;2022-09-13T11:01:52;139.70;;;29.70;;
3718;SDS011;1875;52.492;6.860;2022-09-13T11:04:48;169.90;;;36.90;;
3718;SDS011;1875;52.492;6.860;2022-09-13T11:07:26;140.10;;;29.83;;
3718;SDS011;1875;52.492;6.860;2022-09-13T11:10:02;229.00;;;52.80;;
3718;SDS011;1875;52.492;6.860;2022-09-13T11:12:36;175.50;;;36.77;;
3718;SDS011;1875;52.492;6.860;2022-09-13T11:15:10;233.87;;;52.53;;
3718;SDS011;1875;52.492;6.860;2022-09-13T11:17:52;244.57;;;54.50;;
3718;SDS011;1875;52.492;6.860;2022-09-13T11:20:29;243.60;;;54.67;;
3718;SDS011;1875;52.492;6.860;2022-09-13T11:23:04;182.33;;;37.30;;
3718;SDS011;1875;52.492;6.860;2022-09-13T11:25:42;194.03;;;36.67;;
3718;SDS011;1875;52.492;6.860;2022-09-13T11:28:18;305.90;;;64.60;;
3718;SDS011;1875;52.492;6.860;2022-09-13T11:30:53;295.50;;;64.37;;
3718;SDS011;1875;52.492;6.860;2022-09-13T11:33:29;284.10;;;54.53;;
3718;SDS011;1875;52.492;6.860;2022-09-13T11:36:15;274.57;;;57.90;;
3718;SDS011;1875;52.492;6.860;2022-09-13T11:38:55;305.07;;;64.90;;
3718;SDS011;1875;52.492;6.860;2022-09-13T11:41:33;243.60;;;64.50;;
3718;SDS011;1875;52.492;6.860;2022-09-13T11:44:15;154.83;;;32.60;;
3718;SDS011;1875;52.492;6.860;2022-09-13T11:47:00;238.77;;;48.00;;
3718;SDS011;1875;52.492;6.860;2022-09-13T11:49:33;126.50;;;25.50;;
3718;SDS011;1875;52.492;6.860;2022-09-13T11:52:10;398.83;;;81.27;;
3718;SDS011;1875;52.492;6.860;2022-09-13T11:54:47;114.97;;;22.73;;
3718;SDS011;1875;52.492;6.860;2022-09-13T11:57:22;143.07;;;29.00;;
3718;SDS011;1875;52.492;6.860;2022-09-13T11:59:52;126.57;;;22.80;;
3718;SDS011;1875;52.492;6.860;2022-09-13T12:02:23;139.37;;;26.60;;
3718;SDS011;1875;52.492;6.860;2022-09-13T12:04:55;166.37;;;31.20;;
3718;SDS011;1875;52.492;6.860;2022-09-13T12:07:45;323.27;;;63.93;;
3718;SDS011;1875;52.492;6.860;2022-09-13T12:10:17;308.37;;;58.47;;
3718;SDS011;1875;52.492;6.860;2022-09-13T12:12:51;348.17;;;68.67;;
3718;SDS011;1875;52.492;6.860;2022-09-13T12:15:21;126.53;;;23.77;;
3718;SDS011;1875;52.492;6.860;2022-09-13T12:17:53;127.33;;;24.40;;
3718;SDS011;1875;52.492;6.860;2022-09-13T12:20:28;312.77;;;61.33;;
3718;SDS011;1875;52.492;6.860;2022-09-13T12:22:58;130.70;;;25.67;;
3718;SDS011;1875;52.492;6.860;2022-09-13T12:25:33;113.30;;;22.40;;
3718;SDS011;1875;52.492;6.860;2022-09-13T12:28:11;133.73;;;25.50;;
3718;SDS011;1875;52.492;6.860;2022-09-13T12:30:44;104.83;;;21.37;;
3718;SDS011;1875;52.492;6.860;2022-09-13T12:33:17;132.10;;;23.90;;
3718;SDS011;1875;52.492;6.860;2022-09-13T12:35:48;112.20;;;22.57;;
3718;SDS011;1875;52.492;6.860;2022-09-13T12:38:26;138.13;;;28.03;;
3718;SDS011;1875;52.492;6.860;2022-09-13T12:41:09;157.23;;;37.77;;
3718;SDS011;1875;52.492;6.860;2022-09-13T12:43:51;119.87;;;23.17;;
3718;SDS011;1875;52.492;6.860;2022-09-13T12:46:44;147.70;;;26.63;;
3718;SDS011;1875;52.492;6.860;2022-09-13T12:49:36;145.50;;;27.77;;
3718;SDS011;1875;52.492;6.860;2022-09-13T12:52:25;147.03;;;29.10;;
3718;SDS011;1875;52.492;6.860;2022-09-13T13:01:06;228.57;;;44.37;;
3718;SDS011;1875;52.492;6.860;2022-09-13T13:03:40;325.57;;;61.73;;
3718;SDS011;1875;52.492;6.860;2022-09-13T13:06:16;123.10;;;22.07;;
3718;SDS011;1875;52.492;6.860;2022-09-13T13:08:51;124.17;;;24.10;;
3718;SDS011;1875;52.492;6.860;2022-09-13T13:11:21;363.90;;;69.43;;
3718;SDS011;1875;52.492;6.860;2022-09-13T13:13:54;290.53;;;59.53;;
3718;SDS011;1875;52.492;6.860;2022-09-13T13:16:26;322.17;;;63.63;;
3718;SDS011;1875;52.492;6.860;2022-09-13T13:18:55;133.73;;;26.27;;
3718;SDS011;1875;52.492;6.860;2022-09-13T13:21:34;332.67;;;62.23;;
3718;SDS011;1875;52.492;6.860;2022-09-13T13:33:10;132.97;;;26.83;;
3718;SDS011;1875;52.492;6.860;2022-09-13T13:35:43;166.03;;;32.87;;
3718;SDS011;1875;52.492;6.860;2022-09-13T13:50:29;179.27;;;35.87;;
3718;SDS011;1875;52.492;6.860;2022-09-13T13:53:19;317.40;;;64.17;;
3718;SDS011;1875;52.492;6.860;2022-09-13T13:56:03;331.83;;;65.07;;
3718;SDS011;1875;52.492;6.860;2022-09-13T13:58:42;145.83;;;28.60;;
3718;SDS011;1875;52.492;6.860;2022-09-13T14:01:13;301.07;;;54.43;;
3718;SDS011;1875;52.492;6.860;2022-09-13T14:06:51;343.80;;;62.27;;
3718;SDS011;1875;52.492;6.860;2022-09-13T14:09:34;126.83;;;26.23;;
3718;SDS011;1875;52.492;6.860;2022-09-13T14:12:12;135.17;;;29.23;;
3718;SDS011;1875;52.492;6.860;2022-09-13T14:14:51;124.77;;;25.83;;
3718;SDS011;1875;52.492;6.860;2022-09-13T14:17:33;127.83;;;25.33;;
3718;SDS011;1875;52.492;6.860;2022-09-13T14:20:19;112.47;;;21.83;;
3718;SDS011;1875;52.492;6.860;2022-09-13T14:22:50;151.90;;;31.20;;
3718;SDS011;1875;52.492;6.860;2022-09-13T14:25:22;395.73;;;79.27;;
3718;SDS011;1875;52.492;6.860;2022-09-13T14:27:51;144.20;;;27.47;;
3718;SDS011;1875;52.492;6.860;2022-09-13T14:30:23;329.13;;;62.17;;
3718;SDS011;1875;52.492;6.860;2022-09-13T14:32:54;293.40;;;56.40;;
3718;SDS011;1875;52.492;6.860;2022-09-13T14:35:24;111.37;;;20.97;;
3718;SDS011;1875;52.492;6.860;2022-09-13T14:37:55;121.03;;;27.37;;
3718;SDS011;1875;52.492;6.860;2022-09-13T14:40:36;285.77;;;53.87;;
3718;SDS011;1875;52.492;6.860;2022-09-13T14:43:12;132.93;;;27.47;;
3718;SDS011;1875;52.492;6.860;2022-09-13T14:45:41;126.23;;;27.17;;
3718;SDS011;1875;52.492;6.860;2022-09-13T14:48:12;133.47;;;24.47;;
3718;SDS011;1875;52.492;6.860;2022-09-13T14:50:45;120.00;;;24.17;;
3718;SDS011;1875;52.492;6.860;2022-09-13T14:53:17;230.00;;;48.53;;
3718;SDS011;1875;52.492;6.860;2022-09-13T14:55:48;177.77;;;34.03;;
3718;SDS011;1875;52.492;6.860;2022-09-13T14:58:19;230.97;;;47.60;;
3718;SDS011;1875;52.492;6.860;2022-09-13T15:00:50;144.30;;;28.50;;
3718;SDS011;1875;52.492;6.860;2022-09-13T15:03:19;142.37;;;30.57;;
3718;SDS011;1875;52.492;6.860;2022-09-13T15:05:50;187.17;;;39.60;;
3718;SDS011;1875;52.492;6.860;2022-09-13T15:11:14;261.03;;;50.03;;
3718;SDS011;1875;52.492;6.860;2022-09-13T15:13:43;242.80;;;48.83;;
3718;SDS011;1875;52.492;6.860;2022-09-13T15:16:22;272.43;;;55.37;;
3718;SDS011;1875;52.492;6.860;2022-09-13T15:21:44;380.90;;;71.10;;
3718;SDS011;1875;52.492;6.860;2022-09-13T15:24:17;465.23;;;92.80;;
3718;SDS011;1875;52.492;6.860;2022-09-13T15:26:48;316.73;;;62.77;;
3718;SDS011;1875;52.492;6.860;2022-09-13T15:29:16;189.00;;;37.10;;
3718;SDS011;1875;52.492;6.860;2022-09-13T15:31:45;412.57;;;79.50;;
3718;SDS011;1875;52.492;6.860;2022-09-13T15:34:18;386.50;;;75.17;;
3718;SDS011;1875;52.492;6.860;2022-09-13T15:36:49;135.53;;;26.57;;
3718;SDS011;1875;52.492;6.860;2022-09-13T15:39:30;370.07;;;69.17;;
3718;SDS011;1875;52.492;6.860;2022-09-13T15:42:09;148.63;;;31.43;;
3718;SDS011;1875;52.492;6.860;2022-09-13T15:44:36;336.93;;;65.87;;